Time;durP1;ratioP1;P1;durP2;ratioP2;P2;SDS_P1;SDS_P2;PMS_P1;PMS_P2;Temp;Humidity;BMP_temperature;BMP_pressure;BME280_temperature;BME280_humidity;BME280_pressure;Samples;Min_cycle;Max_cycle;Signal;HPM_P1;HPM_P2
2022/07/03 00:01:16;;;;;;;8.38;3.40;;;;;;;18.38;68.52;101590.31;5133011;27;20273;-66
2022/07/03 00:03:41;;;;;;;4.95;3.00;;;;;;;18.31;68.71;101590.97;5081791;27;20493;-66
2022/07/03 00:06:07;;;;;;;6.28;2.83;;;;;;;18.35;68.39;101590.59;5133481;27;20126;-66
2022/07/03 00:08:33;;;;;;;4.65;3.40;;;;;;;18.34;68.58;101586.16;5133931;27;20051;-66
2022/07/03 00:10:59;;;;;;;4.53;3.03;;;;;;;18.34;68.16;101594.25;5133921;27;20515;-66
2022/07/03 00:13:24;;;;;;;5.03;2.75;;;;;;;18.27;68.52;101601.13;5099172;27;20029;-66
2022/07/03 00:15:50;;;;;;;5.05;2.85;;;;;;;18.22;68.86;101607.88;5116054;27;20027;-66
2022/07/03 00:18:17;;;;;;;5.53;2.47;;;;;;;18.10;70.09;101613.31;5134562;27;20027;-66
2022/07/03 00:20:53;;;;;;;7.05;3.08;;;;;;;17.82;69.80;101619.22;5099760;27;20030;-66
2022/07/03 00:23:21;;;;;;;4.40;3.60;;;;;;;17.81;69.16;101622.91;5134525;27;20031;-66
2022/07/03 00:25:49;;;;;;;7.63;4.13;;;;;;;17.78;69.17;101626.72;5133335;27;20055;-66
2022/07/03 00:28:14;;;;;;;5.70;4.18;;;;;;;17.63;69.58;101630.59;5114438;27;20478;-66
2022/07/03 00:30:43;;;;;;;6.82;3.90;;;;;;;17.67;69.71;101632.91;5134257;27;20027;-66
2022/07/03 00:33:08;;;;;;;11.18;4.60;;;;;;;17.67;69.81;101630.22;5133405;27;20046;-66
2022/07/03 00:35:36;;;;;;;6.57;4.47;;;;;;;17.60;70.00;101633.53;5133326;27;20422;-66
2022/07/03 00:38:02;;;;;;;7.82;4.60;;;;;;;17.59;69.83;101631.81;5131988;27;20038;-66
2022/07/03 00:40:29;;;;;;;6.55;4.63;;;;;;;17.70;69.41;101632.66;5133488;27;20019;-66
2022/07/03 00:42:55;;;;;;;5.35;4.65;;;;;;;17.63;69.87;101628.78;5133051;27;20459;-66
2022/07/03 00:45:22;;;;;;;5.50;4.70;;;;;;;17.62;69.52;101628.91;5134231;27;20131;-66
2022/07/03 00:47:48;;;;;;;6.90;4.60;;;;;;;17.73;69.27;101634.25;5134118;27;20026;-66
2022/07/03 00:50:14;;;;;;;6.30;4.20;;;;;;;17.75;69.30;101629.63;5134101;27;20031;-66
2022/07/03 00:52:48;;;;;;;8.07;4.63;;;;;;;17.59;69.93;101634.50;5113454;27;20019;-66
2022/07/03 00:55:16;;;;;;;7.63;4.78;;;;;;;17.66;69.46;101627.66;5132204;27;20482;-66
2022/07/03 00:57:46;;;;;;;6.95;4.40;;;;;;;17.66;69.07;101630.34;5133071;27;20412;-66
2022/07/03 01:00:14;;;;;;;7.85;4.60;;;;;;;17.75;68.70;101626.91;5132943;27;20023;-66
2022/07/03 01:02:55;;;;;;;5.38;4.38;;;;;;;17.77;68.54;101624.97;5115142;27;20023;-66
2022/07/03 01:05:27;;;;;;;8.02;5.00;;;;;;;17.72;68.79;101632.56;5131839;27;20019;-66
2022/07/03 01:08:19;;;;;;;5.90;4.70;;;;;;;17.76;68.60;101627.78;5131870;27;20023;-66
2022/07/03 01:10:56;;;;;;;6.45;4.40;;;;;;;17.70;68.37;101619.22;5132126;27;20393;-66
2022/07/03 01:13:37;;;;;;;5.25;4.70;;;;;;;17.65;68.53;101620.59;5114047;27;20474;-66
2022/07/03 01:16:44;;;;;;;5.75;4.50;;;;;;;17.73;68.00;101623.50;5130901;27;20034;-66
2022/07/03 01:19:09;;;;;;;5.40;4.55;;;;;;;17.56;68.72;101626.69;5114219;27;20167;-66
2022/07/03 01:21:54;;;;;;;7.35;4.75;;;;;;;17.62;68.19;101628.91;5132125;27;20106;-66
2022/07/03 01:24:47;;;;;;;7.93;5.18;;;;;;;17.52;68.85;101631.47;5132308;27;20500;-66
2022/07/03 01:27:28;;;;;;;8.65;5.25;;;;;;;17.44;69.08;101631.22;5133461;27;20030;-66
2022/07/03 01:30:01;;;;;;;9.75;5.47;;;;;;;17.28;69.85;101634.28;5132594;27;20037;-66
2022/07/03 01:32:33;;;;;;;8.50;5.60;;;;;;;17.26;69.49;101614.69;5132132;27;20023;-66
2022/07/03 01:35:01;;;;;;;7.03;5.40;;;;;;;17.22;69.99;101621.31;5131851;27;20096;-66
2022/07/03 01:37:29;;;;;;;6.70;5.53;;;;;;;17.21;69.90;101627.69;5131309;27;20038;-66
2022/07/03 01:39:58;;;;;;;8.63;5.82;;;;;;;17.28;69.50;101619.97;5132004;27;20058;-66
2022/07/03 01:42:24;;;;;;;7.05;6.07;;;;;;;17.27;69.64;101620.97;5132091;27;20019;-66
2022/07/03 01:44:53;;;;;;;6.90;5.70;;;;;;;17.16;69.96;101622.66;5133027;27;20035;-66
2022/07/03 01:47:19;;;;;;;8.23;5.70;;;;;;;17.25;69.67;101627.28;5131047;27;20027;-65
2022/07/03 01:49:44;;;;;;;7.40;5.00;;;;;;;17.23;69.81;101618.47;5113398;27;20397;-66
2022/07/03 01:52:15;;;;;;;7.15;5.40;;;;;;;17.12;69.92;101625.69;5132006;27;20038;-66
2022/07/03 01:54:44;;;;;;;5.78;4.88;;;;;;;17.22;69.86;101634.75;5131945;27;20088;-66
2022/07/03 01:57:10;;;;;;;5.40;4.00;;;;;;;17.26;69.46;101625.47;5132481;27;20366;-66
2022/07/03 01:59:35;;;;;;;5.88;5.00;;;;;;;17.22;69.71;101626.69;5114415;27;20088;-66
2022/07/03 02:02:14;;;;;;;7.10;5.00;;;;;;;17.21;69.68;101627.69;5095757;27;20046;-66
2022/07/03 02:05:01;;;;;;;8.15;5.32;;;;;;;17.12;70.03;101620.31;5131024;27;20493;-66
2022/07/03 02:07:45;;;;;;;7.65;4.80;;;;;;;17.04;70.15;101610.19;5113806;27;20231;-66
2022/07/03 02:10:16;;;;;;;6.32;4.93;;;;;;;16.90;70.97;101611.25;5113431;27;20027;-66
2022/07/03 02:12:57;;;;;;;7.03;4.95;;;;;;;16.94;70.53;101611.84;5111319;27;20550;-66
2022/07/03 02:15:31;;;;;;;6.22;4.88;;;;;;;16.91;70.35;101604.03;5113693;27;20466;-66
2022/07/03 02:18:00;;;;;;;7.90;4.82;;;;;;;16.83;70.68;101606.47;5132558;27;20072;-66
2022/07/03 02:20:33;;;;;;;7.97;4.93;;;;;;;16.74;71.24;101606.19;5131755;27;20469;-66
2022/07/03 02:23:01;;;;;;;7.43;5.90;;;;;;;16.60;71.60;101589.41;5130934;27;20019;-66
2022/07/03 02:25:34;;;;;;;5.93;4.85;;;;;;;16.60;71.08;101597.47;5112833;27;20167;-66
2022/07/03 02:28:04;;;;;;;9.60;5.05;;;;;;;16.72;71.04;101602.75;5113779;27;20083;-66
2022/07/03 02:30:30;;;;;;;11.00;5.50;;;;;;;16.58;71.45;101605.63;5130884;27;20023;-66
2022/07/03 02:32:58;;;;;;;9.27;5.72;;;;;;;16.59;71.50;101610.03;5131482;27;20053;-66
2022/07/03 02:35:32;;;;;;;6.28;5.18;;;;;;;16.60;71.12;101617.13;5112846;27;20019;-66
2022/07/03 02:38:09;;;;;;;6.57;5.97;;;;;;;16.52;71.42;101601.56;5130775;27;20019;-65
2022/07/03 02:40:56;;;;;;;6.85;5.97;;;;;;;16.58;71.07;101606.47;5131255;27;20027;-66
2022/07/03 02:43:27;;;;;;;7.63;6.32;;;;;;;16.43;71.56;101598.75;5111622;27;20047;-66
2022/07/03 02:49:18;;;;;;;6.85;5.88;;;;;;;16.39;71.67;101613.38;5130278;27;20038;-66
2022/07/03 02:51:50;;;;;;;8.73;6.00;;;;;;;16.30;72.10;101597.00;5131442;27;20056;-66
2022/07/03 02:54:17;;;;;;;7.78;6.28;;;;;;;16.38;71.53;101603.59;5132107;27;20363;-66
2022/07/03 02:56:51;;;;;;;7.10;6.32;;;;;;;16.23;72.39;101609.13;5112995;27;20019;-66
2022/07/03 02:59:39;;;;;;;7.97;6.47;;;;;;;16.29;71.77;101592.56;5130464;27;20059;-66
2022/07/03 03:02:17;;;;;;;7.13;6.03;;;;;;;16.23;72.08;101592.19;5129993;27;20549;-65
2022/07/03 03:04:48;;;;;;;9.13;6.03;;;;;;;16.23;72.04;101606.44;5112364;27;20383;-66
2022/07/03 03:07:17;;;;;;;7.53;6.03;;;;;;;16.20;72.15;101604.00;5131002;27;20296;-66
2022/07/03 03:09:44;;;;;;;9.20;6.38;;;;;;;16.20;71.86;101616.56;5113269;28;20497;-66
2022/07/03 03:12:10;;;;;;;9.57;5.75;;;;;;;16.17;71.90;101617.66;5131614;27;20039;-66
2022/07/03 03:14:44;;;;;;;6.00;5.40;;;;;;;16.13;72.17;101613.50;5131482;27;20394;-66
2022/07/03 03:17:16;;;;;;;6.95;6.13;;;;;;;16.02;72.72;101616.09;5112100;28;20407;-66
2022/07/03 03:19:46;;;;;;;7.32;6.35;;;;;;;16.01;72.68;101620.63;5131614;28;20542;-66
2022/07/03 03:22:20;;;;;;;8.20;5.57;;;;;;;16.05;72.68;101615.88;5130184;27;20023;-66
2022/07/03 03:24:46;;;;;;;7.18;6.47;;;;;;;15.86;73.02;101611.88;5134940;27;20033;-66
2022/07/03 03:27:15;;;;;;;9.02;6.22;;;;;;;15.94;73.10;101621.19;5117288;27;20113;-66
2022/07/03 03:29:41;;;;;;;10.10;6.65;;;;;;;15.85;73.30;101622.72;5135624;27;20043;-66
2022/07/03 03:32:07;;;;;;;7.07;6.07;;;;;;;15.90;73.37;101625.91;5115524;27;20070;-66
2022/07/03 03:34:33;;;;;;;7.65;6.85;;;;;;;15.91;72.97;101635.66;5115365;27;20031;-66
2022/07/03 03:36:58;;;;;;;7.35;6.65;;;;;;;15.78;73.47;101616.94;5132424;27;20020;-66
2022/07/03 03:39:25;;;;;;;10.32;7.63;;;;;;;15.81;73.70;101631.97;5135428;27;20061;-66
2022/07/03 03:41:52;;;;;;;7.97;7.18;;;;;;;15.80;73.41;101628.41;5133953;27;20118;-66
2022/07/03 03:44:17;;;;;;;7.80;7.10;;;;;;;15.71;73.74;101636.28;5134187;27;20064;-66
2022/07/03 03:46:43;;;;;;;8.73;6.88;;;;;;;15.69;73.67;101632.84;5135362;27;20026;-66
2022/07/03 03:49:09;;;;;;;7.35;6.65;;;;;;;15.69;73.73;101631.03;5099006;27;20046;-66
2022/07/03 03:51:34;;;;;;;7.25;6.55;;;;;;;15.78;73.12;101632.19;5115164;27;20026;-66
2022/07/03 03:54:00;;;;;;;6.75;6.13;;;;;;;15.77;73.03;101625.13;5133817;27;20024;-66
2022/07/03 03:56:28;;;;;;;11.60;6.32;;;;;;;15.79;73.12;101623.16;5082973;27;20063;-66
2022/07/03 03:58:53;;;;;;;9.55;6.60;;;;;;;15.70;73.45;101622.00;5117156;27;20034;-66
2022/07/03 04:01:18;;;;;;;7.68;5.68;;;;;;;15.78;73.06;101630.34;5081834;27;20038;-66
2022/07/03 04:03:44;;;;;;;7.07;5.93;;;;;;;15.82;72.88;101629.16;5132792;27;20031;-66
2022/07/03 04:06:09;;;;;;;6.93;5.82;;;;;;;15.83;72.76;101632.72;5081224;27;20423;-66
2022/07/03 04:08:35;;;;;;;8.18;5.93;;;;;;;15.74;73.02;101620.81;5098236;27;20050;-66
2022/07/03 04:11:03;;;;;;;7.22;5.90;;;;;;;15.86;72.59;101619.06;5134747;27;20035;-66
2022/07/03 04:13:31;;;;;;;6.15;5.55;;;;;;;15.80;72.91;101628.41;5115663;27;20019;-66
2022/07/03 04:15:57;;;;;;;6.33;5.73;;;;;;;15.76;72.96;101629.59;5134656;27;20027;-66
2022/07/03 04:18:23;;;;;;;7.47;5.47;;;;;;;15.79;72.95;101633.88;5135086;27;20027;-66
2022/07/03 04:20:48;;;;;;;6.50;5.65;;;;;;;15.82;72.40;101633.66;5133018;27;20031;-66
2022/07/03 04:23:17;;;;;;;5.43;4.82;;;;;;;15.86;72.53;101637.84;5132837;27;20482;-66
2022/07/03 04:25:43;;;;;;;6.50;5.88;;;;;;;15.79;72.15;101637.41;5133097;27;20103;-66
2022/07/03 04:28:09;;;;;;;6.30;5.32;;;;;;;15.74;72.03;101639.59;5134671;27;20110;-66
2022/07/03 04:30:37;;;;;;;8.20;5.57;;;;;;;15.78;71.65;101637.53;5116117;27;20386;-66
2022/07/03 04:33:02;;;;;;;8.88;5.95;;;;;;;15.88;71.76;101634.09;5116036;27;20403;-66
2022/07/03 04:35:28;;;;;;;5.68;5.18;;;;;;;15.93;72.06;101635.56;5114782;27;20034;-66
2022/07/03 04:37:54;;;;;;;5.78;4.97;;;;;;;15.96;71.19;101633.50;5114010;27;20030;-66
2022/07/03 04:40:20;;;;;;;7.57;5.57;;;;;;;16.07;71.61;101638.09;5115376;27;20386;-66
2022/07/03 04:42:47;;;;;;;6.93;5.25;;;;;;;16.00;71.38;101640.38;5095166;28;20444;-66
2022/07/03 04:45:13;;;;;;;10.93;5.88;;;;;;;16.07;71.71;101651.53;5113513;28;20032;-66
2022/07/03 04:47:41;;;;;;;6.90;5.85;;;;;;;16.08;71.78;101658.59;5112030;28;20042;-66
2022/07/03 04:50:07;;;;;;;9.48;5.78;;;;;;;16.22;71.01;101658.44;5091640;28;20027;-66
2022/07/03 04:52:32;;;;;;;6.97;5.35;;;;;;;16.19;71.02;101652.44;5111593;28;20478;-66
2022/07/03 04:54:58;;;;;;;5.85;5.03;;;;;;;16.22;71.25;101652.22;5111859;28;20023;-66
2022/07/03 04:57:23;;;;;;;8.23;5.57;;;;;;;16.11;70.67;101655.69;5113469;28;20035;-66
2022/07/03 04:59:49;;;;;;;8.80;5.60;;;;;;;16.21;71.11;101654.06;5113440;28;20027;-66
2022/07/03 05:02:15;;;;;;;7.97;5.57;;;;;;;16.31;70.86;101656.91;5111622;28;20509;-66
2022/07/03 05:04:42;;;;;;;6.10;5.50;;;;;;;16.33;70.84;101653.13;5110733;28;20027;-66
2022/07/03 05:07:08;;;;;;;9.05;5.57;;;;;;;16.42;69.97;101656.09;5112739;28;20027;-66
2022/07/03 05:09:33;;;;;;;7.18;5.28;;;;;;;16.49;70.78;101654.66;5111660;28;20032;-66
2022/07/03 05:11:58;;;;;;;5.97;5.10;;;;;;;16.52;70.43;101649.91;5111438;28;20496;-66
2022/07/03 05:14:24;;;;;;;7.07;5.40;;;;;;;16.46;71.08;101653.06;5111364;28;20443;-66
2022/07/03 05:16:50;;;;;;;6.38;5.13;;;;;;;16.45;70.16;101647.81;5110719;28;20036;-66
2022/07/03 05:19:16;;;;;;;7.57;5.47;;;;;;;16.19;70.84;101636.34;5093496;28;20028;-66
2022/07/03 05:21:41;;;;;;;6.07;5.03;;;;;;;16.45;70.90;101664.78;5110775;28;20115;-66
2022/07/03 05:24:07;;;;;;;7.75;5.30;;;;;;;16.32;71.07;101651.44;5111502;28;20031;-66
2022/07/03 05:26:33;;;;;;;9.18;5.97;;;;;;;16.46;70.65;101663.81;5112764;28;20386;-66
2022/07/03 05:28:58;;;;;;;8.10;4.93;;;;;;;16.47;70.82;101656.59;5111824;28;20023;-66
2022/07/03 05:31:24;;;;;;;7.53;5.55;;;;;;;16.66;70.60;101659.63;5110197;28;20055;-66
2022/07/03 05:33:50;;;;;;;7.88;5.63;;;;;;;16.74;70.23;101662.59;5112027;28;20035;-66
2022/07/03 05:36:15;;;;;;;11.38;5.20;;;;;;;16.78;69.94;101665.94;5112035;28;20080;-66
2022/07/03 05:41:24;;;;;;;6.82;5.38;;;;;;;16.82;70.26;101670.06;5110089;28;20058;-66
2022/07/03 05:43:50;;;;;;;6.82;4.55;;;;;;;16.91;70.04;101680.16;5107615;28;20503;-66
2022/07/03 05:46:18;;;;;;;6.97;4.68;;;;;;;16.95;69.84;101668.19;5110335;28;20042;-66
2022/07/03 05:48:43;;;;;;;6.68;4.50;;;;;;;17.03;69.48;101672.97;5112290;27;20020;-66
2022/07/03 05:51:11;;;;;;;9.90;4.70;;;;;;;17.01;69.07;101665.03;5110558;28;20119;-66
2022/07/03 05:53:37;;;;;;;7.15;4.70;;;;;;;17.13;68.56;101657.84;5109615;28;20028;-66
2022/07/03 05:56:03;;;;;;;6.63;4.53;;;;;;;17.24;68.64;101667.75;5111151;27;20024;-66
2022/07/03 05:58:28;;;;;;;5.88;4.20;;;;;;;17.29;67.70;101673.63;5109760;28;20031;-66
2022/07/03 06:00:56;;;;;;;5.25;4.00;;;;;;;17.34;68.19;101674.13;5109742;28;20027;-66
2022/07/03 06:03:22;;;;;;;6.80;4.55;;;;;;;17.51;67.81;101680.00;5108843;28;20122;-66
2022/07/03 06:05:48;;;;;;;5.35;4.57;;;;;;;17.55;67.44;101668.03;5108755;28;20115;-67
2022/07/03 06:08:13;;;;;;;5.57;4.03;;;;;;;17.64;68.62;101678.91;5110004;28;20032;-66
2022/07/03 06:10:38;;;;;;;6.47;4.00;;;;;;;17.76;67.64;101677.06;5111434;28;20031;-66
2022/07/03 06:13:04;;;;;;;10.18;4.75;;;;;;;17.87;66.51;101677.09;5111282;28;20035;-66
2022/07/03 06:15:30;;;;;;;7.75;4.40;;;;;;;17.95;67.65;101687.25;5110608;28;20501;-66
2022/07/03 06:17:55;;;;;;;6.78;4.93;;;;;;;17.99;66.75;101683.31;5110536;28;20028;-66
2022/07/03 06:20:23;;;;;;;6.88;4.90;;;;;;;17.97;66.60;101689.81;5111498;28;20046;-65
2022/07/03 06:22:49;;;;;;;14.85;4.90;;;;;;;18.11;66.39;101689.53;5110631;28;20039;-66
2022/07/03 06:25:14;;;;;;;7.30;5.32;;;;;;;18.14;67.43;101687.44;5109595;28;20057;-66
2022/07/03 06:27:39;;;;;;;8.15;4.90;;;;;;;18.35;67.22;101689.34;5111184;28;20456;-66
2022/07/03 06:30:08;;;;;;;6.32;4.75;;;;;;;18.41;66.64;101688.84;5110872;28;20120;-66
2022/07/03 06:32:33;;;;;;;8.98;5.68;;;;;;;18.42;66.19;101697.81;5109651;28;20046;-66
2022/07/03 06:34:59;;;;;;;7.85;4.95;;;;;;;18.33;66.73;101688.66;5111543;28;20023;-66
2022/07/03 06:37:25;;;;;;;13.18;5.35;;;;;;;18.39;67.32;101693.53;5110047;28;20050;-66
2022/07/03 06:39:50;;;;;;;10.02;4.85;;;;;;;18.53;66.90;101697.75;5111266;28;20386;-66
2022/07/03 06:42:16;;;;;;;8.10;5.00;;;;;;;18.65;67.36;101687.78;5111027;28;20137;-66
2022/07/03 06:44:42;;;;;;;11.32;5.45;;;;;;;18.81;66.46;101696.34;5130299;27;20038;-66
2022/07/03 06:47:09;;;;;;;5.75;4.22;;;;;;;18.95;65.56;101679.84;5131665;27;20042;-66
2022/07/03 06:49:35;;;;;;;12.43;4.30;;;;;;;18.97;66.37;101688.69;5131838;27;20031;-66
2022/07/03 06:52:00;;;;;;;7.70;3.88;;;;;;;18.91;65.38;101693.72;5130913;27;20023;-66
2022/07/03 06:54:26;;;;;;;11.68;4.70;;;;;;;19.01;65.09;101695.50;5131448;27;20031;-66
2022/07/03 06:56:51;;;;;;;7.47;4.00;;;;;;;19.22;65.00;101695.50;5093413;27;20027;-66
2022/07/03 06:59:17;;;;;;;8.13;4.22;;;;;;;19.31;64.55;101693.00;5094628;27;20035;-66
2022/07/03 07:01:42;;;;;;;9.80;4.03;;;;;;;19.08;63.73;101693.13;5131443;27;20423;-66
2022/07/03 07:04:08;;;;;;;9.23;3.97;;;;;;;18.77;65.30;101671.50;5131581;27;20033;-66
2022/07/03 07:06:34;;;;;;;8.40;4.22;;;;;;;19.04;65.26;101689.00;5111086;27;20121;-66
2022/07/03 07:09:00;;;;;;;9.55;4.10;;;;;;;19.21;65.62;101696.50;5131026;27;20422;-66
2022/07/03 07:11:25;;;;;;;7.05;4.38;;;;;;;19.31;63.85;101691.16;5112376;28;20115;-66
2022/07/03 07:13:51;;;;;;;9.07;4.43;;;;;;;19.52;64.20;101691.13;5111482;28;20106;-66
2022/07/03 07:16:17;;;;;;;7.22;4.13;;;;;;;19.65;64.06;101691.81;5128169;27;20027;-66
2022/07/03 07:18:43;;;;;;;9.35;4.50;;;;;;;19.76;61.71;101698.94;5128693;28;20414;-66
2022/07/03 07:21:09;;;;;;;7.10;3.75;;;;;;;19.82;62.62;101684.03;5128922;28;20023;-66
2022/07/03 07:23:37;;;;;;;7.70;3.88;;;;;;;19.91;62.93;101697.59;5131383;28;20088;-66
2022/07/03 07:26:03;;;;;;;8.50;3.88;;;;;;;19.88;61.79;101681.66;5096067;28;20050;-66
2022/07/03 07:28:30;;;;;;;7.03;3.65;;;;;;;20.02;62.49;101704.72;5112342;28;20031;-66
2022/07/03 07:30:57;;;;;;;8.63;4.30;;;;;;;20.11;61.52;101700.34;5131495;28;20034;-66
2022/07/03 07:33:23;;;;;;;6.65;3.80;;;;;;;20.23;61.41;101707.31;5112378;28;20027;-66
2022/07/03 07:35:51;;;;;;;8.43;3.90;;;;;;;20.23;60.69;101707.31;5130598;28;20457;-66
2022/07/03 07:38:17;;;;;;;7.70;3.78;;;;;;;20.35;61.30;101711.66;5113158;28;20023;-67
2022/07/03 07:40:44;;;;;;;6.07;3.92;;;;;;;20.51;61.29;101707.53;5131050;28;20058;-66
2022/07/03 07:43:09;;;;;;;5.90;4.00;;;;;;;20.41;60.69;101707.50;5130495;28;20074;-67
2022/07/03 07:45:37;;;;;;;11.27;4.35;;;;;;;20.47;59.93;101706.97;5128280;28;20092;-67
2022/07/03 07:48:04;;;;;;;5.38;4.07;;;;;;;20.52;60.07;101707.41;5130087;28;20060;-67
2022/07/03 07:50:30;;;;;;;11.25;4.43;;;;;;;20.57;59.70;101715.13;5112518;28;20019;-66
2022/07/03 07:52:56;;;;;;;5.05;4.22;;;;;;;20.69;61.11;101713.13;5095657;28;20074;-66
2022/07/03 07:55:21;;;;;;;5.78;3.72;;;;;;;20.81;60.43;101704.72;5112694;28;20355;-66
2022/07/03 07:57:47;;;;;;;9.05;4.10;;;;;;;20.91;59.09;101702.00;5130554;27;20046;-67
2022/07/03 08:00:15;;;;;;;6.15;3.20;;;;;;;20.95;58.86;101716.13;5129963;28;20015;-67
2022/07/03 08:05:35;;;;;;;6.68;3.50;;;;;;;21.02;59.33;101712.69;5130308;28;20091;-66
2022/07/03 08:08:11;;;;;;;7.88;3.53;;;;;;;21.08;58.63;101712.09;5114139;28;20032;-67
2022/07/03 08:10:42;;;;;;;8.23;3.60;;;;;;;21.23;58.10;101717.91;5131915;27;20023;-66
2022/07/03 08:13:08;;;;;;;7.38;3.83;;;;;;;21.28;56.87;101710.22;5133268;27;20031;-66
2022/07/03 08:15:36;;;;;;;7.53;4.00;;;;;;;21.28;58.38;101717.50;5084766;27;20027;-66
2022/07/03 08:18:03;;;;;;;5.72;3.92;;;;;;;21.34;56.77;101719.63;5134793;27;20030;-66
2022/07/03 08:20:28;;;;;;;6.20;3.10;;;;;;;21.48;56.72;101715.63;5134589;27;20393;-66
2022/07/03 08:22:54;;;;;;;6.43;3.50;;;;;;;21.62;56.38;101709.75;5127816;27;20034;-66
2022/07/03 08:25:20;;;;;;;4.82;3.08;;;;;;;21.73;55.34;101706.00;5111285;27;20076;-66
2022/07/03 08:27:46;;;;;;;7.65;3.83;;;;;;;21.74;56.65;101707.72;5132222;27;20023;-66
2022/07/03 08:30:14;;;;;;;5.18;3.15;;;;;;;21.89;55.86;101706.22;5132469;27;20061;-65
2022/07/03 08:32:40;;;;;;;6.93;3.28;;;;;;;21.88;55.10;101706.34;5116700;27;20030;-66
2022/07/03 08:35:09;;;;;;;7.25;3.47;;;;;;;22.03;55.46;101725.69;5130745;27;20011;-66
2022/07/03 08:37:35;;;;;;;;;;;;;;;22.10;55.03;101711.38;5109685;27;20031;-66
2022/07/03 08:40:03;;;;;;;7.30;3.85;;;;;;;21.97;55.39;101711.75;5129137;27;19922;-66
2022/07/03 08:42:30;;;;;;;10.02;3.95;;;;;;;22.06;54.98;101722.66;5111941;27;20030;-66
2022/07/03 08:44:58;;;;;;;7.10;3.47;;;;;;;22.24;54.96;101712.78;5111032;27;20035;-66
2022/07/03 08:47:25;;;;;;;5.32;3.10;;;;;;;22.20;54.96;101712.19;5130624;27;20022;-66
2022/07/03 08:49:51;;;;;;;5.03;2.85;;;;;;;22.40;54.24;101712.09;5115263;27;20019;-66
2022/07/03 08:52:18;;;;;;;5.15;3.05;;;;;;;22.34;53.67;101710.84;5134084;27;20469;-66
2022/07/03 08:54:43;;;;;;;5.70;2.78;;;;;;;22.44;53.46;101702.63;5133853;27;20156;-66
2022/07/03 08:57:11;;;;;;;4.07;2.92;;;;;;;22.70;52.97;101715.44;5099174;27;20034;-66
2022/07/03 08:59:38;;;;;;;6.65;3.10;;;;;;;22.78;53.86;101705.53;5116297;27;20478;-66
2022/07/03 09:02:05;;;;;;;4.68;2.95;;;;;;;22.94;52.44;101717.53;5134177;27;20034;-66
2022/07/03 09:04:33;;;;;;;5.70;3.00;;;;;;;23.06;53.02;101709.03;5133981;27;20041;-66
2022/07/03 09:06:59;;;;;;;6.18;3.30;;;;;;;22.96;52.53;101699.25;5133822;27;20026;-66
2022/07/03 09:09:25;;;;;;;6.50;3.45;;;;;;;22.96;50.86;101704.69;5116134;27;20492;-66
2022/07/03 09:11:51;;;;;;;4.97;3.15;;;;;;;23.16;53.22;101702.66;5115612;27;20043;-66
2022/07/03 09:14:17;;;;;;;5.45;3.25;;;;;;;23.17;52.47;101696.19;5133449;27;20084;-66
2022/07/03 09:16:43;;;;;;;4.22;2.67;;;;;;;23.42;52.28;101708.09;5133756;27;20023;-66
2022/07/03 09:19:09;;;;;;;4.53;3.15;;;;;;;23.41;50.79;101712.66;5115571;27;20046;-66
2022/07/03 09:21:37;;;;;;;5.55;3.00;;;;;;;23.68;51.16;101710.78;5132656;27;20103;-66
2022/07/03 09:24:07;;;;;;;5.35;3.63;;;;;;;23.67;50.82;101712.63;5133810;27;20129;-66
2022/07/03 09:26:34;;;;;;;10.00;3.45;;;;;;;23.69;50.95;101701.63;5133601;27;20355;-67
2022/07/03 09:28:59;;;;;;;4.55;2.90;;;;;;;23.84;49.44;101701.91;5133699;27;20080;-66
2022/07/03 09:31:29;;;;;;;4.53;2.67;;;;;;;23.68;50.13;101727.94;5133683;27;20058;-66
2022/07/03 09:34:07;;;;;;;7.50;2.85;;;;;;;23.69;51.01;101736.94;5133579;27;20026;-66
2022/07/03 09:36:44;;;;;;;5.63;2.83;;;;;;;23.73;50.44;101730.19;5133382;27;20603;-66
2022/07/03 09:39:24;;;;;;;8.77;3.00;;;;;;;23.57;49.41;101730.94;5133747;27;20026;-66
2022/07/03 09:42:04;;;;;;;6.38;3.22;;;;;;;23.44;50.58;101730.50;5133554;27;20023;-67
2022/07/03 09:44:45;;;;;;;5.20;3.63;;;;;;;23.61;49.33;101728.75;5132671;27;20039;-67
2022/07/03 09:47:23;;;;;;;4.55;3.00;;;;;;;23.76;50.45;101736.16;5133604;27;20031;-66
2022/07/03 09:49:55;;;;;;;6.63;2.85;;;;;;;23.75;51.88;101737.16;5133549;27;20071;-67
2022/07/03 09:52:28;;;;;;;7.25;3.13;;;;;;;23.94;50.56;101727.94;5114920;27;20034;-66
2022/07/03 09:54:58;;;;;;;4.72;3.03;;;;;;;23.93;48.43;101731.66;5132831;27;20015;-66
2022/07/03 09:57:26;;;;;;;10.20;3.65;;;;;;;23.73;48.09;101736.47;5133474;27;20042;-67
2022/07/03 10:00:16;;;;;;;3.88;2.90;;;;;;;23.87;49.84;101724.16;5133136;27;20034;-66
2022/07/03 10:03:04;;;;;;;5.35;3.22;;;;;;;23.86;50.13;101722.47;5133049;27;20056;-67
2022/07/03 10:05:33;;;;;;;5.18;2.90;;;;;;;23.96;48.62;101725.06;5132555;27;20027;-67
2022/07/03 10:08:01;;;;;;;3.72;2.92;;;;;;;24.24;47.04;101729.25;5132775;27;20047;-66
2022/07/03 10:10:31;;;;;;;3.27;2.53;;;;;;;24.51;48.87;101721.03;5114947;27;20382;-66
2022/07/03 10:12:58;;;;;;;5.82;3.05;;;;;;;24.68;47.42;101720.88;5132971;27;20273;-67
2022/07/03 10:15:28;;;;;;;3.15;2.50;;;;;;;24.93;49.19;101723.59;5132528;27;20030;-66
2022/07/03 10:17:57;;;;;;;7.68;2.90;;;;;;;24.75;46.91;101722.94;5132414;27;20026;-66
2022/07/03 10:20:32;;;;;;;4.60;2.45;;;;;;;24.62;47.33;101727.00;5132876;27;20027;-67
2022/07/03 10:22:58;;;;;;;3.92;2.20;;;;;;;24.17;48.52;101728.19;5114697;27;20019;-67
2022/07/03 10:25:24;;;;;;;5.32;2.30;;;;;;;24.12;48.39;101733.28;5132944;27;20023;-67
2022/07/03 10:27:50;;;;;;;2.85;1.98;;;;;;;24.28;47.47;101729.75;5132469;27;20027;-67
2022/07/03 10:30:18;;;;;;;5.18;2.25;;;;;;;24.33;48.17;101721.97;5131919;27;20156;-67
2022/07/03 10:32:46;;;;;;;3.13;2.15;;;;;;;24.48;46.74;101733.09;5114292;27;20071;-67
2022/07/03 10:35:14;;;;;;;4.97;2.40;;;;;;;24.24;48.17;101731.13;5132674;27;20034;-67
2022/07/03 10:37:56;;;;;;;4.28;2.30;;;;;;;24.23;46.53;101737.56;5113822;27;20019;-67
2022/07/03 10:46:13;;;;;;;5.68;2.00;;;;;;;23.96;46.17;101728.63;5132641;27;20058;-67
2022/07/03 10:49:11;;;;;;;4.20;2.35;;;;;;;23.95;46.75;101748.66;5132205;27;20035;-67
2022/07/03 10:51:59;;;;;;;2.28;1.63;;;;;;;23.95;46.75;101747.81;5075792;27;20054;-67
2022/07/03 10:54:48;;;;;;;2.53;1.65;;;;;;;24.05;47.29;101740.38;5132666;27;20036;-67
2022/07/03 10:57:17;;;;;;;5.63;2.10;;;;;;;23.84;47.25;101739.94;5132123;27;20773;-67
2022/07/03 10:59:45;;;;;;;5.95;2.67;;;;;;;23.83;46.90;101749.97;5132185;27;20019;-67
2022/07/03 11:02:33;;;;;;;5.60;2.47;;;;;;;23.65;47.78;101754.56;5132314;27;20023;-67
2022/07/03 11:04:59;;;;;;;;;;;;;;;23.75;47.45;101756.19;5132661;27;20029;-67
2022/07/03 11:07:35;;;;;;;3.78;2.30;;;;;;;23.51;48.01;101751.44;5113308;28;20006;-67
2022/07/03 11:10:12;;;;;;;4.80;2.38;;;;;;;23.65;47.89;101750.00;5114799;27;20042;-67
2022/07/03 11:12:56;;;;;;;6.07;2.50;;;;;;;23.84;46.85;101739.94;5131504;27;20034;-67
2022/07/03 11:15:36;;;;;;;3.53;2.13;;;;;;;24.13;45.23;101740.41;5131780;27;20171;-67
2022/07/03 11:18:07;;;;;;;4.40;2.45;;;;;;;24.48;43.30;101730.38;5131454;27;20478;-67
2022/07/03 11:20:36;;;;;;;3.78;1.90;;;;;;;24.34;44.93;101725.53;5131972;28;20027;-67
2022/07/03 11:23:26;;;;;;;3.67;1.55;;;;;;;24.45;43.37;101733.41;5131355;28;20031;-67
2022/07/03 11:25:53;;;;;;;3.33;2.17;;;;;;;24.38;44.02;101730.44;5131719;28;20098;-67
2022/07/03 11:28:34;;;;;;;4.05;1.73;;;;;;;24.10;44.54;101729.88;5130959;28;20494;-67
2022/07/03 11:31:09;;;;;;;2.78;1.52;;;;;;;24.04;44.87;101722.38;5131844;28;20435;-67
2022/07/03 11:33:44;;;;;;;4.05;1.40;;;;;;;24.34;46.09;101720.09;5113019;28;20031;-67
2022/07/03 11:36:33;;;;;;;2.70;1.60;;;;;;;24.82;43.80;101716.63;5130906;28;20072;-66
2022/07/03 11:38:58;;;;;;;3.97;1.60;;;;;;;24.83;44.51;101715.63;5131245;28;20030;-67
2022/07/03 11:41:34;;;;;;;4.78;1.50;;;;;;;24.69;45.06;101706.25;5131326;28;20031;-66
2022/07/03 11:44:04;;;;;;;4.80;2.70;;;;;;;24.52;46.43;101711.84;5132037;27;20047;-66
2022/07/03 11:46:33;;;;;;;5.22;3.10;;;;;;;24.16;47.01;101712.91;5135163;27;20047;-67
2022/07/03 11:49:05;;;;;;;3.80;2.38;;;;;;;24.29;47.20;101733.31;5116526;27;20019;-67